Time;durP1;ratioP1;P1;durP2;ratioP2;P2;SDS_P1;SDS_P2;PMS_P1;PMS_P2;Temp;Humidity;BMP_temperature;BMP_pressure;BME280_temperature;BME280_humidity;BME280_pressure;Samples;Min_cycle;Max_cycle;Signal;HPM_P1;HPM_P2
2023/07/25 00:01:34;;;;;;;19.42;14.02;;;;;;;24.72;48.53;94378.59;5194312;22;20019;-83
2023/07/25 00:03:36;;;;;;;21.77;14.60;;;;;;;24.73;48.81;94375.63;5171178;22;20024;-85
2023/07/25 00:05:38;;;;;;;23.85;14.25;;;;;;;24.74;48.60;94379.16;5196159;22;20498;-82
2023/07/25 00:07:40;;;;;;;23.42;13.77;;;;;;;24.70;48.55;94381.53;5226890;22;20047;-84
2023/07/25 00:09:41;;;;;;;22.55;14.45;;;;;;;24.67;48.62;94376.69;5173347;23;20347;-79
2023/07/25 00:11:45;;;;;;;18.95;13.90;;;;;;;24.65;48.86;94377.97;5226447;22;20320;-81
2023/07/25 00:13:48;;;;;;;21.52;14.40;;;;;;;24.53;48.98;94381.63;5222428;22;20029;-85
2023/07/25 00:15:51;;;;;;;20.20;14.40;;;;;;;24.48;48.91;94373.56;5167543;23;20028;-82
2023/07/25 00:17:53;;;;;;;21.63;14.98;;;;;;;24.48;49.12;94381.59;5167754;22;20099;-81
2023/07/25 00:19:54;;;;;;;20.77;14.15;;;;;;;24.48;49.14;94378.91;5194098;22;20370;-84
2023/07/25 00:42:11;;;;;;;21.92;13.88;;;;;;;24.33;48.76;94362.69;5220068;22;20124;-79
2023/07/25 00:58:14;;;;;;;19.45;13.40;;;;;;;24.48;49.12;94341.44;5223714;22;20026;-85
2023/07/25 01:00:32;;;;;;;17.43;13.23;;;;;;;24.42;49.47;94347.78;5181900;22;20027;-81
2023/07/25 01:02:34;;;;;;;20.65;13.55;;;;;;;24.37;49.55;94345.06;5187210;22;20295;-84
2023/07/25 01:04:37;;;;;;;21.60;13.10;;;;;;;24.38;49.38;94340.50;5188561;22;20035;-83
2023/07/25 01:06:41;;;;;;;20.75;13.82;;;;;;;24.41;49.15;94338.09;5163630;22;20027;-83
2023/07/25 01:08:49;;;;;;;23.75;13.30;;;;;;;24.41;49.53;94329.28;5188563;22;20024;-84
2023/07/25 01:10:51;;;;;;;19.75;13.30;;;;;;;24.42;49.39;94341.63;5162813;22;20387;-83
2023/07/25 01:12:53;;;;;;;20.80;13.57;;;;;;;24.41;49.79;94346.13;5214372;22;20439;-83
2023/07/25 01:14:57;;;;;;;21.73;13.70;;;;;;;24.38;49.95;94348.53;5212916;22;20023;-83
2023/07/25 01:17:06;;;;;;;20.27;13.35;;;;;;;24.37;49.89;94345.06;5212779;22;20110;-81
2023/07/25 01:19:11;;;;;;;23.90;14.90;;;;;;;24.34;49.60;94350.91;5214859;22;20059;-81
2023/07/25 01:21:13;;;;;;;18.52;13.43;;;;;;;24.29;49.98;94351.66;5188583;22;20532;-83
2023/07/25 01:23:16;;;;;;;20.92;13.73;;;;;;;24.26;50.26;94349.50;5163243;22;20070;-83
2023/07/25 01:25:17;;;;;;;21.35;13.93;;;;;;;24.27;49.88;94345.75;5161804;22;20028;-85
2023/07/25 01:27:19;;;;;;;23.75;13.30;;;;;;;24.27;49.83;94339.59;5187502;22;20274;-84
2023/07/25 01:29:22;;;;;;;17.27;13.57;;;;;;;24.27;49.90;94342.28;5212825;22;20023;-83
2023/07/25 01:31:24;;;;;;;22.20;14.32;;;;;;;24.26;49.79;94337.97;5215029;22;20019;-82
2023/07/25 01:33:29;;;;;;;16.40;12.77;;;;;;;24.23;49.98;94331.25;5187576;22;20071;-84
2023/07/25 01:35:31;;;;;;;20.08;13.75;;;;;;;24.26;50.13;94325.41;5214646;22;20019;-82
2023/07/25 01:37:33;;;;;;;28.23;14.68;;;;;;;24.20;50.14;94322.91;5186652;22;20075;-82
2023/07/25 01:39:34;;;;;;;20.58;13.98;;;;;;;24.20;50.44;94322.91;5186208;22;20019;-83
2023/07/25 01:41:38;;;;;;;17.60;12.82;;;;;;;24.19;50.32;94324.78;5187106;22;20059;-81
2023/07/25 01:43:39;;;;;;;19.80;13.60;;;;;;;24.17;50.27;94328.78;5185349;22;20070;-81
2023/07/25 01:45:41;;;;;;;25.80;14.18;;;;;;;24.20;50.32;94328.28;5187641;22;20517;-83
2023/07/25 01:47:52;;;;;;;21.58;13.77;;;;;;;24.20;50.46;94328.28;5185997;22;20305;-83
2023/07/25 01:49:55;;;;;;;20.23;13.68;;;;;;;24.17;50.40;94329.59;5215178;22;20027;-84
2023/07/25 01:51:57;;;;;;;20.52;13.75;;;;;;;24.01;50.71;94341.22;5215564;22;20023;-83
2023/07/25 01:53:59;;;;;;;25.35;14.25;;;;;;;23.92;50.90;94343.53;5213405;22;20027;-84
2023/07/25 01:56:02;;;;;;;21.30;13.77;;;;;;;23.80;50.96;94348.19;5215675;22;20023;-86
2023/07/25 01:58:03;;;;;;;20.58;12.68;;;;;;;23.57;51.73;94350.03;5188211;22;20474;-87
2023/07/25 02:00:06;;;;;;;21.40;13.18;;;;;;;23.53;51.99;94351.56;5163288;22;20195;-87
2023/07/25 02:02:08;;;;;;;27.38;14.75;;;;;;;23.45;51.96;94354.69;5188340;22;20402;-83
2023/07/25 02:04:09;;;;;;;22.33;14.50;;;;;;;23.44;52.46;94353.06;5165907;22;20059;-84
2023/07/25 02:06:11;;;;;;;21.30;13.68;;;;;;;23.42;52.43;94355.97;5202330;22;20023;-84
2023/07/25 02:08:14;;;;;;;18.23;12.40;;;;;;;23.43;52.54;94362.16;5222266;22;20071;-86
2023/07/25 02:10:17;;;;;;;22.63;14.38;;;;;;;23.46;51.79;94370.47;5217055;22;20437;-84
2023/07/25 02:12:19;;;;;;;21.75;13.48;;;;;;;23.34;52.28;94372.47;5215909;22;20041;-84
2023/07/25 02:14:20;;;;;;;21.92;13.57;;;;;;;23.24;52.46;94370.44;5187965;22;20035;-82
2023/07/25 02:16:22;;;;;;;24.02;13.15;;;;;;;23.30;52.95;94368.66;5219417;22;20019;-84
2023/07/25 02:18:24;;;;;;;18.90;13.15;;;;;;;23.39;52.61;94369.03;5190000;22;20076;-84
2023/07/25 02:20:31;;;;;;;21.70;13.10;;;;;;;23.47;52.43;94380.13;5221236;22;20030;-87
2023/07/25 02:22:33;;;;;;;20.17;13.52;;;;;;;23.48;51.80;94372.91;5190232;22;20061;-83
2023/07/25 02:24:35;;;;;;;22.13;14.13;;;;;;;23.48;51.41;94371.03;5217068;22;20055;-84
2023/07/25 02:26:38;;;;;;;21.13;13.77;;;;;;;23.38;51.17;94380.78;5191448;22;20097;-84
2023/07/25 02:28:40;;;;;;;19.55;14.95;;;;;;;23.30;51.63;94382.81;5224104;22;20430;-84
2023/07/25 02:30:46;;;;;;;19.77;14.13;;;;;;;23.30;51.64;94387.38;5225634;22;20019;-85
2023/07/25 02:32:48;;;;;;;19.15;14.07;;;;;;;23.19;52.13;94383.75;5174007;22;20031;-85
2023/07/25 02:34:49;;;;;;;24.50;15.23;;;;;;;23.09;52.64;94397.75;5210839;22;20092;-83
2023/07/25 02:36:53;;;;;;;20.00;14.43;;;;;;;22.85;53.09;94390.94;5209382;22;20008;-84
2023/07/25 02:38:55;;;;;;;23.50;14.05;;;;;;;22.80;54.04;94388.16;5238346;22;20027;-84
2023/07/25 02:40:58;;;;;;;22.83;14.55;;;;;;;22.80;54.41;94391.69;5238073;22;20031;-83
2023/07/25 02:43:02;;;;;;;18.30;14.15;;;;;;;22.83;54.66;94385.84;5236222;22;20050;-83
2023/07/25 02:45:04;;;;;;;21.50;13.40;;;;;;;22.99;53.96;94391.41;5211023;22;20123;-81
2023/07/25 02:47:06;;;;;;;20.08;14.68;;;;;;;23.08;53.50;94382.78;5237847;22;20059;-81
2023/07/25 02:49:08;;;;;;;23.67;14.85;;;;;;;23.18;53.51;94384.78;5237749;22;20029;-83
2023/07/25 02:51:10;;;;;;;26.35;15.50;;;;;;;23.27;53.15;94385.19;5237600;22;20050;-84
2023/07/25 02:53:11;;;;;;;25.17;14.18;;;;;;;23.33;53.31;94386.88;5209221;22;20011;-84
2023/07/25 02:55:13;;;;;;;25.50;14.15;;;;;;;23.35;53.11;94382.09;5184198;22;20027;-84
2023/07/25 02:57:15;;;;;;;23.00;15.52;;;;;;;23.42;52.80;94384.59;5237150;22;20092;-84
2023/07/25 02:59:19;;;;;;;25.08;14.95;;;;;;;23.43;52.70;94383.53;5183347;22;20079;-83
2023/07/25 03:01:20;;;;;;;21.83;15.52;;;;;;;23.46;52.71;94380.34;5199849;22;20023;-85
2023/07/25 03:03:24;;;;;;;24.00;14.90;;;;;;;23.48;52.56;94386.28;5190721;22;20284;-84
2023/07/25 03:05:27;;;;;;;24.88;15.30;;;;;;;23.38;52.89;94386.13;5189542;22;20027;-84
2023/07/25 03:07:29;;;;;;;23.67;14.80;;;;;;;23.14;53.38;94377.50;5218337;22;20090;-85
2023/07/25 03:09:31;;;;;;;24.48;15.73;;;;;;;22.95;54.06;94376.91;5190521;22;20031;-85
2023/07/25 03:11:33;;;;;;;26.38;14.95;;;;;;;22.83;54.28;94372.47;5164644;22;20408;-83
2023/07/25 03:13:35;;;;;;;22.10;14.52;;;;;;;22.81;54.29;94374.59;5188624;22;20579;-83
2023/07/25 03:15:37;;;;;;;21.05;15.25;;;;;;;22.82;54.13;94376.22;5187659;22;20038;-83
2023/07/25 03:17:39;;;;;;;22.58;14.80;;;;;;;22.85;54.33;94391.75;5188031;22;20070;-82
2023/07/25 03:19:43;;;;;;;;;;;;;;;22.92;53.71;94383.56;5217221;22;20113;-84
2023/07/25 03:21:45;;;;;;;22.60;14.55;;;;;;;22.86;54.70;94371.97;5219876;22;20005;-85
2023/07/25 03:23:47;;;;;;;22.02;14.30;;;;;;;22.86;54.84;94384.53;5226769;22;20086;-85
2023/07/25 03:25:48;;;;;;;23.75;14.60;;;;;;;22.84;54.00;94386.63;5226961;22;20027;-83
2023/07/25 03:27:52;;;;;;;21.92;14.48;;;;;;;22.87;53.96;94375.50;5195956;22;20116;-84
2023/07/25 03:29:54;;;;;;;22.13;14.27;;;;;;;22.94;53.64;94386.81;5218090;22;20343;-84
2023/07/25 03:31:55;;;;;;;31.00;15.13;;;;;;;22.99;54.00;94380.72;5191278;22;20047;-84
2023/07/25 03:33:57;;;;;;;27.33;15.18;;;;;;;23.07;53.62;94389.16;5219036;22;20046;-85
2023/07/25 03:36:00;;;;;;;31.98;15.30;;;;;;;23.11;53.65;94386.81;5219709;22;20057;-84
2023/07/25 03:38:02;;;;;;;28.23;15.65;;;;;;;23.17;53.37;94390.41;5220508;22;20080;-82
2023/07/25 03:40:06;;;;;;;23.42;16.27;;;;;;;23.21;53.08;94383.47;5190022;22;20185;-83
2023/07/25 03:42:07;;;;;;;24.17;15.02;;;;;;;23.23;53.01;94379.53;5216947;22;20417;-82
2023/07/25 03:44:11;;;;;;;25.10;15.75;;;;;;;23.26;52.80;94387.03;5216125;22;20058;-82
2023/07/25 03:46:12;;;;;;;25.15;16.20;;;;;;;23.29;52.79;94391.88;5163503;22;20115;-82
2023/07/25 03:48:14;;;;;;;27.88;16.50;;;;;;;23.30;52.78;94376.69;5216376;22;20019;-85
2023/07/25 03:50:16;;;;;;;26.30;15.70;;;;;;;23.29;53.03;94383.06;5215679;22;20446;-85
2023/07/25 03:52:18;;;;;;;27.17;16.15;;;;;;;23.31;53.12;94387.09;5165489;22;20016;-84
2023/07/25 03:54:23;;;;;;;27.52;15.13;;;;;;;23.35;53.15;94373.28;5191524;22;20116;-86
2023/07/25 03:56:26;;;;;;;29.65;15.30;;;;;;;23.38;52.97;94381.63;5220709;22;20123;-82
2023/07/25 03:58:28;;;;;;;23.67;15.82;;;;;;;23.42;53.11;94377.38;5192790;22;20027;-88
2023/07/25 04:00:30;;;;;;;39.72;16.27;;;;;;;23.48;53.02;94371.03;5216633;22;20023;-87
2023/07/25 04:02:32;;;;;;;29.92;17.10;;;;;;;23.49;52.99;94372.66;5216696;22;20126;-86
2023/07/25 04:04:33;;;;;;;31.52;16.20;;;;;;;23.57;52.85;94367.94;5217531;22;20026;-84
2023/07/25 04:06:37;;;;;;;26.00;15.90;;;;;;;23.58;53.18;94370.38;5217898;22;20050;-85
2023/07/25 04:08:40;;;;;;;20.70;14.02;;;;;;;23.57;52.75;94379.44;5192745;22;20151;-84
2023/07/25 04:10:42;;;;;;;30.98;17.02;;;;;;;23.27;53.38;94379.81;5189911;22;20024;-86
2023/07/25 04:12:47;;;;;;;32.67;16.00;;;;;;;23.03;54.16;94373.88;5191354;22;20529;-84
2023/07/25 04:14:48;;;;;;;22.13;16.08;;;;;;;22.99;54.43;94376.19;5191416;22;20530;-83
2023/07/25 04:16:50;;;;;;;24.20;14.95;;;;;;;22.87;54.09;94381.63;5222934;22;20023;-83
2023/07/25 04:18:52;;;;;;;28.17;15.38;;;;;;;22.85;54.69;94389.06;5223419;22;20049;-83
2023/07/25 04:20:54;;;;;;;30.42;15.35;;;;;;;23.00;54.43;94391.22;5222224;22;20055;-85
2023/07/25 04:22:56;;;;;;;29.55;15.15;;;;;;;23.19;53.71;94393.59;5191546;22;20027;-85
2023/07/25 04:25:00;;;;;;;22.13;15.20;;;;;;;23.31;53.31;94391.66;5167749;22;20039;-85
2023/07/25 04:27:03;;;;;;;25.92;15.30;;;;;;;23.43;53.28;94391.56;5197376;22;20063;-83
2023/07/25 04:29:05;;;;;;;23.80;14.38;;;;;;;23.54;53.00;94398.66;5225584;22;20031;-85
2023/07/25 04:31:07;;;;;;;29.90;14.63;;;;;;;23.65;52.88;94395.06;5226888;22;20027;-84
2023/07/25 04:33:10;;;;;;;21.73;15.57;;;;;;;23.75;52.39;94389.03;5195410;22;20048;-83
2023/07/25 04:35:13;;;;;;;30.10;15.38;;;;;;;23.84;52.08;94384.09;5219632;22;20023;-86
2023/07/25 04:37:15;;;;;;;23.65;14.55;;;;;;;23.93;51.84;94379.91;5218810;22;20041;-83
2023/07/25 04:39:18;;;;;;;28.80;14.80;;;;;;;24.01;51.85;94376.78;5218920;22;20034;-84
2023/07/25 04:41:20;;;;;;;24.73;14.68;;;;;;;24.09;51.62;94376.34;5218472;22;20094;-83
2023/07/25 04:43:21;;;;;;;24.42;14.95;;;;;;;24.15;51.42;94374.53;5217780;22;20025;-85
2023/07/25 04:45:26;;;;;;;28.95;14.95;;;;;;;24.20;51.20;94371.09;5189346;22;20023;-87
2023/07/25 04:47:27;;;;;;;21.88;14.75;;;;;;;24.22;51.14;94375.16;5189483;22;20024;-86
2023/07/25 04:49:29;;;;;;;25.98;16.40;;;;;;;24.22;51.01;94364.44;5219687;22;20114;-86
2023/07/25 04:51:31;;;;;;;27.83;16.02;;;;;;;24.17;51.46;94361.69;5194518;22;20039;-83
2023/07/25 04:53:34;;;;;;;28.08;16.83;;;;;;;24.04;51.95;94368.25;5194119;22;20020;-85
2023/07/25 04:55:38;;;;;;;28.70;17.10;;;;;;;23.84;52.64;94368.03;5192549;22;20020;-86
2023/07/25 04:57:43;;;;;;;22.70;15.57;;;;;;;23.89;52.68;94366.22;5190530;22;20114;-88
2023/07/25 04:59:47;;;;;;;37.40;16.08;;;;;;;24.01;52.18;94368.78;5165711;22;20055;-85
2023/07/25 05:01:49;;;;;;;25.23;15.65;;;;;;;23.99;52.05;94362.06;5216764;22;20027;-84
2023/07/25 05:03:51;;;;;;;26.52;15.50;;;;;;;24.03;52.07;94360.50;5189995;22;20416;-84
2023/07/25 05:05:56;;;;;;;25.02;15.20;;;;;;;24.12;52.17;94365.13;5189503;22;20026;-86
2023/07/25 05:07:59;;;;;;;26.40;15.75;;;;;;;24.23;52.05;94354.53;5217263;22;20079;-86
2023/07/25 05:10:01;;;;;;;24.40;16.52;;;;;;;24.25;51.66;94350.56;5219380;22;20064;-86
2023/07/25 05:12:04;;;;;;;21.95;15.57;;;;;;;24.34;51.43;94353.56;5217799;22;20023;-86
2023/07/25 05:14:08;;;;;;;21.55;16.02;;;;;;;24.44;51.61;94353.69;5216789;22;20062;-83
2023/07/25 05:16:12;;;;;;;23.75;15.25;;;;;;;24.48;51.76;94345.97;5216818;22;20099;-84
2023/07/25 05:18:15;;;;;;;25.45;16.38;;;;;;;24.48;51.73;94351.31;5217199;22;20031;-86
2023/07/25 05:20:17;;;;;;;24.48;16.23;;;;;;;24.46;51.13;94350.75;5190803;22;20389;-84
2023/07/25 05:22:19;;;;;;;28.00;15.80;;;;;;;24.26;51.19;94351.34;5218069;22;20054;-86
2023/07/25 05:24:21;;;;;;;27.00;15.73;;;;;;;24.23;51.24;94351.88;5217371;22;20019;-86
2023/07/25 05:26:23;;;;;;;25.52;15.85;;;;;;;24.29;51.39;94353.53;5190494;22;20049;-84
2023/07/25 05:28:27;;;;;;;26.48;15.68;;;;;;;24.42;51.44;94353.13;5166688;22;20074;-86
2023/07/25 05:30:29;;;;;;;24.30;15.75;;;;;;;24.50;51.17;94350.03;5219383;22;20368;-85
2023/07/25 05:32:31;;;;;;;23.98;15.82;;;;;;;24.56;51.38;94352.72;5218472;22;20315;-87
2023/07/25 05:34:37;;;;;;;25.88;16.30;;;;;;;24.55;51.33;94359.16;5165952;22;20114;-87
2023/07/25 05:36:39;;;;;;;26.08;16.00;;;;;;;24.52;51.21;94365.81;5216193;22;20023;-85
2023/07/25 05:38:42;;;;;;;24.30;15.25;;;;;;;24.33;51.15;94366.16;5216936;22;20150;-85
2023/07/25 05:40:45;;;;;;;25.75;16.10;;;;;;;24.42;51.19;94363.84;5188995;22;20030;-85
2023/07/25 05:42:50;;;;;;;23.48;15.70;;;;;;;24.40;51.39;94360.59;5217325;22;20015;-86
2023/07/25 05:44:53;;;;;;;22.10;16.08;;;;;;;24.59;51.05;94353.03;5216726;22;20029;-85
2023/07/25 05:46:55;;;;;;;21.17;14.77;;;;;;;24.61;50.68;94358.13;5189190;22;20023;-82
2023/07/25 05:48:56;;;;;;;25.02;14.10;;;;;;;24.67;50.46;94354.44;5215101;22;20043;-84
2023/07/25 05:50:58;;;;;;;18.90;13.60;;;;;;;24.87;50.34;94349.25;5219074;22;20023;-87
2023/07/25 05:53:01;;;;;;;22.92;14.27;;;;;;;25.06;49.69;94356.84;5222897;22;20023;-84
2023/07/25 05:55:04;;;;;;;26.60;14.02;;;;;;;25.17;48.92;94347.84;5167463;22;20035;-84
2023/07/25 05:57:07;;;;;;;22.40;14.30;;;;;;;25.28;48.72;94351.41;5192246;22;20027;-85
2023/07/25 05:59:09;;;;;;;28.83;14.85;;;;;;;25.31;48.35;94349.00;5190709;22;20323;-86
2023/07/25 06:01:12;;;;;;;27.90;17.10;;;;;;;25.44;48.51;94357.66;5188852;22;20027;-85
2023/07/25 06:03:15;;;;;;;26.83;13.97;;;;;;;25.45;48.00;94359.28;5188466;22;20400;-84
2023/07/25 06:05:17;;;;;;;;;;;;;;;25.46;48.16;94353.66;5189157;22;20325;-83
2023/07/25 06:07:19;;;;;;;26.67;13.80;;;;;;;25.25;48.46;94344.72;5220431;22;19923;-86
2023/07/25 06:09:25;;;;;;;27.33;14.77;;;;;;;25.33;49.15;94332.66;5218776;22;20128;-85
2023/07/25 06:11:27;;;;;;;22.10;14.48;;;;;;;25.44;49.14;94331.66;5192799;22;20304;-84
2023/07/25 06:13:33;;;;;;;24.17;14.50;;;;;;;25.41;49.40;94336.75;5216823;22;20019;-86
2023/07/25 06:15:35;;;;;;;25.23;13.98;;;;;;;25.49;49.00;94330.88;5188588;22;20023;-84
2023/07/25 06:17:37;;;;;;;24.00;12.98;;;;;;;25.59;48.66;94330.13;5188467;22;20028;-86
2023/07/25 06:19:40;;;;;;;27.15;12.68;;;;;;;25.57;48.35;94330.38;5215407;22;20031;-85
2023/07/25 06:40:39;;;;;;;21.50;11.88;;;;;;;25.69;47.93;94296.09;5215635;22;20030;-85
2023/07/25 06:42:41;;;;;;;22.02;12.85;;;;;;;25.79;48.11;94294.50;5186002;22;20085;-86
2023/07/25 06:44:44;;;;;;;22.35;12.85;;;;;;;25.97;47.76;94291.38;5192755;22;20087;-86
2023/07/25 06:46:46;;;;;;;21.17;12.07;;;;;;;26.09;46.93;94293.78;5216620;22;20027;-85
2023/07/25 06:48:48;;;;;;;29.55;13.15;;;;;;;26.24;46.97;94298.38;5216044;22;20019;-85
2023/07/25 06:50:50;;;;;;;24.35;12.73;;;;;;;26.23;46.72;94299.47;5217972;22;20098;-87
2023/07/25 06:52:52;;;;;;;18.23;12.02;;;;;;;26.27;46.19;94292.50;5216784;22;20126;-85
2023/07/25 06:54:57;;;;;;;19.80;12.00;;;;;;;26.30;45.09;94292.75;5191960;22;20023;-85
2023/07/25 06:56:59;;;;;;;26.42;12.88;;;;;;;26.38;45.42;94288.75;5193035;22;20024;-86
2023/07/25 06:59:01;;;;;;;21.63;12.30;;;;;;;26.41;46.00;94298.13;5193214;22;20028;-84
2023/07/25 07:01:04;;;;;;;17.52;12.57;;;;;;;26.61;45.61;94297.34;5222662;22;20103;-86
2023/07/25 07:03:08;;;;;;;22.35;12.85;;;;;;;26.72;45.15;94297.09;5196674;22;20023;-86
2023/07/25 07:05:11;;;;;;;21.77;12.40;;;;;;;26.70;45.29;94306.50;5225314;22;20086;-84
2023/07/25 07:07:29;;;;;;;26.23;13.40;;;;;;;26.60;45.25;94304.63;5228681;22;20033;-85
2023/07/25 07:09:32;;;;;;;24.30;13.75;;;;;;;26.61;44.95;94300.03;5193381;22;20020;-84
2023/07/25 07:11:35;;;;;;;23.77;12.70;;;;;;;26.67;44.62;94294.44;5219269;22;20030;-86
2023/07/25 07:13:38;;;;;;;24.08;12.48;;;;;;;26.82;44.83;94298.16;5190730;22;20063;-88
2023/07/25 07:15:44;;;;;;;22.98;13.13;;;;;;;26.96;44.45;94299.22;5165972;22;20464;-85
2023/07/25 07:17:55;;;;;;;22.48;13.30;;;;;;;27.15;44.68;94296.78;5218328;22;20019;-86
2023/07/25 07:20:00;;;;;;;23.88;13.27;;;;;;;27.25;43.58;94299.44;5190550;22;20029;-85
2023/07/25 07:22:02;;;;;;;19.90;13.00;;;;;;;27.37;43.73;94289.19;5192191;22;20068;-85
2023/07/25 07:24:04;;;;;;;20.17;12.27;;;;;;;27.53;44.17;94289.13;5219639;22;20034;-87
2023/07/25 07:26:08;;;;;;;24.95;12.55;;;;;;;27.69;42.98;94284.50;5222102;22;20023;-87
2023/07/25 07:28:13;;;;;;;29.23;12.77;;;;;;;27.88;43.09;94288.22;5226878;22;20098;-84
2023/07/25 07:30:15;;;;;;;22.17;12.98;;;;;;;28.02;42.64;94285.69;5196047;22;20118;-85
2023/07/25 07:32:16;;;;;;;21.38;12.98;;;;;;;27.83;41.48;94287.41;5222713;22;20679;-85
2023/07/25 07:34:19;;;;;;;27.05;13.57;;;;;;;27.69;42.22;94282.63;5166510;23;20091;-86
2023/07/25 07:36:22;;;;;;;20.98;12.77;;;;;;;27.83;42.17;94272.03;5218496;22;20058;-86
2023/07/25 07:38:24;;;;;;;23.88;14.05;;;;;;;27.85;41.87;94282.53;5218827;22;20417;-85
2023/07/25 07:40:26;;;;;;;23.83;13.90;;;;;;;27.67;42.52;94279.41;5192012;22;20339;-85
2023/07/25 07:42:28;;;;;;;23.08;13.23;;;;;;;27.70;41.86;94278.03;5191622;22;20066;-84
2023/07/25 07:44:30;;;;;;;32.75;15.35;;;;;;;27.69;42.10;94271.84;5219979;22;20020;-85
2023/07/25 07:46:35;;;;;;;22.13;13.82;;;;;;;27.73;42.47;94278.28;5218554;22;20019;-89
2023/07/25 07:48:37;;;;;;;31.33;15.43;;;;;;;27.85;41.71;94280.69;5189994;22;20035;-86
2023/07/25 07:50:39;;;;;;;29.27;17.60;;;;;;;27.88;41.81;94271.25;5192229;22;20470;-85
2023/07/25 07:52:41;;;;;;;34.65;19.45;;;;;;;27.81;41.86;94268.81;5219324;22;20149;-86
2023/07/25 07:54:44;;;;;;;26.85;15.30;;;;;;;27.86;41.71;94276.13;5192236;22;20081;-87
2023/07/25 07:56:47;;;;;;;25.63;13.32;;;;;;;27.90;41.34;94261.81;5220015;22;20019;-88
2023/07/25 07:58:49;;;;;;;24.05;13.63;;;;;;;27.97;41.79;94262.31;5217385;22;20050;-80
2023/07/25 08:00:51;;;;;;;18.90;12.70;;;;;;;28.06;41.28;94256.34;5219324;22;20023;-88
2023/07/25 08:02:53;;;;;;;25.73;14.00;;;;;;;28.14;40.71;94250.38;5221499;22;20031;-85
2023/07/25 08:04:55;;;;;;;23.42;13.68;;;;;;;28.27;40.83;94248.94;5221557;22;20027;-88
2023/07/25 08:06:57;;;;;;;22.15;11.65;;;;;;;28.43;41.28;94253.09;5224542;22;20081;-87
2023/07/25 08:08:59;;;;;;;22.27;12.45;;;;;;;28.57;40.94;94246.00;5230301;22;20090;-89
2023/07/25 08:11:00;;;;;;;25.77;12.82;;;;;;;28.81;39.95;94241.75;5172361;23;20026;-88
2023/07/25 08:13:03;;;;;;;24.07;12.60;;;;;;;28.99;39.62;94249.91;5225163;22;20038;-86
2023/07/25 08:15:07;;;;;;;22.65;12.65;;;;;;;29.13;39.30;94243.88;5217002;22;20035;-90
2023/07/25 08:17:09;;;;;;;22.33;11.68;;;;;;;29.27;39.05;94239.41;5191279;22;20471;-82
2023/07/25 08:19:12;;;;;;;22.55;12.32;;;;;;;29.15;37.57;94244.41;5216975;22;20019;-81
2023/07/25 08:21:14;;;;;;;18.88;12.30;;;;;;;29.08;37.44;94244.72;5221896;22;20025;-81
2023/07/25 08:23:16;;;;;;;19.08;12.35;;;;;;;28.89;37.80;94244.66;5197632;22;20111;-80
2023/07/25 08:25:17;;;;;;;18.85;11.70;;;;;;;28.88;37.93;94245.72;5234406;22;20015;-80
2023/07/25 08:28:14;;;;;;;20.98;11.88;;;;;;;29.02;38.08;94247.72;5233407;22;20030;-81
2023/07/25 08:30:18;;;;;;;17.27;12.07;;;;;;;29.23;37.22;94243.75;5232671;22;20007;-82
2023/07/25 08:32:20;;;;;;;18.45;11.82;;;;;;;29.33;37.15;94242.84;5198567;22;20027;-77
2023/07/25 08:34:23;;;;;;;16.75;11.18;;;;;;;29.25;36.92;94236.19;5229895;22;20050;-77
2023/07/25 08:36:25;;;;;;;17.95;12.00;;;;;;;29.38;36.73;94230.09;5228533;22;20067;-78
2023/07/25 08:38:27;;;;;;;17.67;12.38;;;;;;;29.35;36.77;94230.66;5230428;22;20027;-81
2023/07/25 08:40:29;;;;;;;19.48;11.73;;;;;;;29.41;36.64;94226.03;5232422;22;20089;-85
2023/07/25 08:42:32;;;;;;;18.48;11.52;;;;;;;29.61;36.76;94227.66;5205195;22;20011;-84
2023/07/25 08:44:35;;;;;;;20.38;11.98;;;;;;;29.70;37.09;94222.44;5202616;22;20079;-83
2023/07/25 08:46:39;;;;;;;18.25;11.73;;;;;;;29.76;36.32;94226.69;5203302;22;20027;-81
2023/07/25 08:48:41;;;;;;;19.45;11.68;;;;;;;29.88;35.98;94215.44;5204534;22;20082;-86
2023/07/25 08:50:46;;;;;;;17.02;11.07;;;;;;;30.03;35.63;94215.22;5196973;22;20458;-88
2023/07/25 08:52:52;;;;;;;15.82;11.40;;;;;;;30.22;36.38;94215.19;5221910;22;20038;-87
2023/07/25 08:54:55;;;;;;;23.80;11.48;;;;;;;30.34;35.39;94215.56;5191223;22;20023;-84
2023/07/25 08:56:58;;;;;;;21.13;12.00;;;;;;;30.43;35.77;94213.00;5166956;22;20123;-87
2023/07/25 08:59:00;;;;;;;27.45;14.85;;;;;;;30.43;35.92;94210.28;5218624;22;20023;-88
2023/07/25 09:01:02;;;;;;;23.33;11.90;;;;;;;30.53;35.60;94206.63;5190335;22;20028;-84
2023/07/25 09:03:04;;;;;;;21.33;11.70;;;;;;;30.57;35.90;94200.34;5215537;22;20027;-84
2023/07/25 09:05:07;;;;;;;24.55;11.52;;;;;;;30.65;35.75;94206.16;5188832;22;20038;-84
2023/07/25 09:07:10;;;;;;;19.45;11.65;;;;;;;30.78;35.31;94199.97;5190122;22;20027;-85
2023/07/25 09:09:12;;;;;;;19.13;11.00;;;;;;;30.94;35.31;94201.31;5191822;22;20125;-87
2023/07/25 09:11:16;;;;;;;20.02;11.57;;;;;;;31.02;35.19;94197.13;5192546;22;20103;-88
2023/07/25 09:13:19;;;;;;;16.42;11.02;;;;;;;31.12;35.03;94196.13;5163391;22;20448;-78
2023/07/25 09:15:21;;;;;;;18.10;11.18;;;;;;;31.14;35.04;94202.03;5189524;22;20091;-86
2023/07/25 09:17:26;;;;;;;22.65;12.13;;;;;;;31.16;34.85;94189.00;5165493;22;20091;-85
2023/07/25 09:19:30;;;;;;;18.92;11.18;;;;;;;30.78;34.77;94189.13;5215938;22;20019;-86
2023/07/25 09:21:31;;;;;;;;;;;;;;;30.83;35.61;94192.56;5216515;22;20070;-83
2023/07/25 09:23:34;;;;;;;22.67;10.93;;;;;;;30.97;36.12;94187.19;5216307;22;19925;-84
2023/07/25 09:31:30;;;;;;;20.38;11.68;;;;;;;30.97;35.17;94179.06;5217950;22;20210;-82
2023/07/25 09:33:33;;;;;;;19.00;11.43;;;;;;;31.13;34.66;94179.59;5216255;22;20023;-83
2023/07/25 09:35:34;;;;;;;21.00;11.27;;;;;;;31.35;34.89;94173.47;5218080;22;20072;-83
2023/07/25 09:37:37;;;;;;;18.48;10.77;;;;;;;31.39;34.47;94182.56;5219595;22;20027;-84
2023/07/25 09:39:39;;;;;;;18.03;11.17;;;;;;;31.45;34.84;94177.91;5192470;22;20095;-83
2023/07/25 09:41:41;;;;;;;20.88;11.45;;;;;;;31.63;34.92;94179.66;5191209;22;20035;-84
2023/07/25 09:43:43;;;;;;;30.83;11.82;;;;;;;31.49;33.75;94180.78;5218744;22;20147;-83
2023/07/25 09:45:46;;;;;;;22.17;11.57;;;;;;;31.62;33.92;94177.25;5224128;22;20084;-81
2023/07/25 09:52:18;;;;;;;;;;;;;;;32.10;33.14;94170.53;5099211;23;20024;-85
2023/07/25 09:54:20;;;;;;;23.50;11.68;;;;;;;32.15;33.95;94165.75;5095077;23;19976;-87
2023/07/25 09:56:23;;;;;;;17.00;11.18;;;;;;;32.29;32.90;94170.31;5217499;22;20050;-86
2023/07/25 09:58:25;;;;;;;16.92;10.27;;;;;;;32.09;32.75;94169.69;5168207;22;20043;-87
2023/07/25 10:00:28;;;;;;;18.27;10.20;;;;;;;32.11;32.76;94162.06;5191389;22;20043;-83
2023/07/25 10:02:29;;;;;;;19.40;11.18;;;;;;;32.16;32.64;94161.13;5190642;22;20075;-80
2023/07/25 10:04:33;;;;;;;24.52;10.75;;;;;;;32.29;33.33;94149.47;5218808;22;20015;-86
2023/07/25 10:06:35;;;;;;;21.05;10.23;;;;;;;32.36;32.20;94146.31;5218724;22;20414;-87
2023/07/25 10:08:43;;;;;;;18.90;10.52;;;;;;;32.46;32.91;94146.06;5194364;22;20066;-83
2023/07/25 10:10:48;;;;;;;23.05;11.07;;;;;;;32.63;32.18;94134.50;5192545;22;20070;-82
2023/07/25 10:12:50;;;;;;;17.55;9.68;;;;;;;32.73;32.98;94130.72;5220564;22;20054;-81
2023/07/25 10:14:52;;;;;;;16.45;10.38;;;;;;;32.93;32.95;94137.50;5218219;22;20593;-84
2023/07/25 10:17:01;;;;;;;21.65;10.73;;;;;;;33.05;32.34;94135.78;5218644;22;20400;-87
2023/07/25 10:19:05;;;;;;;25.70;10.35;;;;;;;33.14;31.97;94124.19;5190292;22;20050;-85
2023/07/25 10:21:08;;;;;;;17.58;10.63;;;;;;;33.31;31.97;94132.38;5217589;22;20034;-82
2023/07/25 10:23:11;;;;;;;15.63;10.52;;;;;;;33.31;32.44;94118.81;5190579;22;20098;-86
2023/07/25 10:25:28;;;;;;;;;;;;;;;33.36;32.45;94120.56;5164581;22;20109;-85
2023/07/25 10:27:33;;;;;;;18.95;10.45;;;;;;;33.42;32.94;94113.88;5190615;22;19938;-84
2023/07/25 10:29:43;;;;;;;24.13;11.20;;;;;;;33.35;31.83;94111.63;5190026;22;20076;-82
2023/07/25 10:31:50;;;;;;;18.60;10.57;;;;;;;33.41;32.48;94101.44;5218899;22;20618;-86